Aviation Digital Data Service (ADDS)

Output produced by METARs form (1427 UTC 10 July 2020)
found at http://www.aviationweather.gov/metar/data/
 
KBQP 101415Z AUTO 27009KT 10SM CLR 30/25 A3003 RMK AO2 T02960254 TSNO
KBQP 101355Z AUTO 26007KT 10SM CLR 29/26 A3003 RMK AO2 T02900256 TSNO
KBQP 101335Z AUTO 27008KT 10SM CLR 29/26 A3003 RMK AO2 T02850259 TSNO
KBQP 101315Z AUTO 26009KT 10SM CLR 28/26 A3002 RMK AO2 T02800260 TSNO
KBQP 101255Z AUTO 25008KT 7SM CLR 28/26 A3002 RMK AO2 T02750263 TSNO
KBQP 101235Z AUTO 25004KT 7SM CLR 27/27 A3002 RMK AO2 T02700266 TSNO
KBQP 101215Z AUTO 23004KT 7SM CLR 27/26 A3002 RMK AO2 T02650261 TSNO
KBQP 101155Z AUTO 24004KT 7SM CLR 26/26 A3002 RMK AO2 70005 T02600256 10260 20250 TSNO
KBQP 101135Z AUTO 00000KT 5SM BR CLR 26/25 A3001 RMK AO2 T02550251 TSNO
KBQP 101115Z AUTO 00000KT 5SM BR CLR 26/25 A3001 RMK AO2 T02550250 TSNO
KBQP 101055Z AUTO 00000KT 7SM CLR 25/25 A3000 RMK AO2 T02530250 TSNO
KBQP 101035Z AUTO 00000KT 7SM CLR 26/25 A2999 RMK AO2 T02550251 TSNO
KBQP 101015Z AUTO 00000KT 7SM CLR 26/25 A2999 RMK AO2 T02550251 TSNO
KBQP 100955Z AUTO 00000KT 7SM CLR 26/25 A2998 RMK AO2 T02570254 TSNO
KBQP 100935Z AUTO 00000KT 7SM CLR 26/26 A2997 RMK AO2 T02600256 TSNO
KBQP 100915Z AUTO 00000KT 7SM CLR 26/26 A2997 RMK AO2 T02600255 TSNO
KBQP 100855Z AUTO 22003KT 7SM CLR 26/26 A2997 RMK AO2 T02600255 TSNO
KBQP 100835Z AUTO 00000KT 7SM CLR 25/25 A2996 RMK AO2 T02540250 TSNO
KBQP 100815Z AUTO 00000KT 5SM BR CLR 25/25 A2995 RMK AO2 T02510247 TSNO
KBQP 100755Z AUTO 00000KT 5SM BR CLR 25/25 A2996 RMK AO2 T02520248 TSNO
KBQP 100735Z AUTO 00000KT 5SM BR CLR 25/25 A2996 RMK AO2 T02540250 TSNO
KBQP 100715Z AUTO 00000KT 7SM CLR 26/25 A2995 RMK AO2 T02550250 TSNO
KBQP 100655Z AUTO 00000KT 5SM BR CLR 25/25 A2995 RMK AO2 T02530249 TSNO
KBQP 100635Z AUTO 00000KT 5SM BR CLR 25/25 A2995 RMK AO2 T02530250 TSNO
KBQP 100615Z AUTO 00000KT 5SM BR CLR 25/25 A2994 RMK AO2 T02540250 TSNO
KBQP 100555Z AUTO 00000KT 5SM BR CLR 26/25 A2995 RMK AO2 T02550251 10325 20255 403350243 TSNO
KBQP 100535Z AUTO 00000KT 5SM BR CLR 26/25 A2995 RMK AO2 T02550251 TSNO
KBQP 100515Z AUTO 00000KT 5SM BR CLR 26/25 A2995 RMK AO2 T02550252 TSNO
KBQP 100455Z AUTO 00000KT 5SM BR CLR 26/25 A2994 RMK AO2 T02570254 TSNO
KBQP 100435Z AUTO 00000KT 7SM CLR 26/26 A2994 RMK AO2 T02600256 TSNO
KBQP 100415Z AUTO 00000KT 7SM CLR 26/26 A2993 RMK AO2 T02620259 TSNO
KBQP 100355Z AUTO 00000KT 7SM CLR 27/26 A2992 RMK AO2 T02650261 TSNO
KBQP 100335Z AUTO 00000KT 10SM CLR 27/26 A2992 RMK AO2 T02650261 TSNO
KBQP 100315Z AUTO 00000KT 7SM CLR 26/26 A2991 RMK AO2 T02620258 TSNO
KBQP 100255Z AUTO 00000KT 7SM CLR 26/26 A2992 RMK AO2 T02640260 TSNO
KBQP 100235Z AUTO 00000KT 7SM CLR 27/26 A2991 RMK AO2 T02670263 TSNO
KBQP 100215Z AUTO 00000KT 7SM CLR 27/27 A2991 RMK AO2 T02690265 TSNO
KBQP 100155Z AUTO 00000KT 7SM CLR 27/27 A2990 RMK AO2 T02700265 TSNO
KBQP 100135Z AUTO 00000KT 7SM CLR 27/27 A2990 RMK AO2 T02720270 TSNO
KBQP 100115Z AUTO 00000KT 7SM CLR 28/27 A2991 RMK AO2 T02770273 TSNO
KBQP 100055Z AUTO 00000KT 10SM CLR 29/27 A2990 RMK AO2 T02920268 TSNO
KBQP 100035Z AUTO 00000KT 10SM CLR 30/26 A2990 RMK AO2 T03040261 TSNO
KBQP 100015Z AUTO 00000KT 10SM CLR 32/24 A2991 RMK AO2 T03200239 TSNO
KBQP 092355Z AUTO 00000KT 10SM CLR 33/24 A2991 RMK AO2 60004 T03250238 10335 20311 TSNO
KBQP 092335Z AUTO 29004KT 10SM CLR 33/24 A2991 RMK AO2 T03290235 TSNO
KBQP 092315Z AUTO 00000KT 10SM CLR 33/24 A2990 RMK AO2 T03310235 TSNO
KBQP 092255Z AUTO 22004KT 10SM CLR 33/23 A2990 RMK AO2 P0001 T03300230 TSNO
KBQP 092235Z AUTO 27004KT 10SM CLR 33/23 A2993 RMK AO2 P0001 T03320234 TSNO
KBQP 092215Z AUTO 28007KT 10SM CLR 33/23 A2992 RMK AO2 P0001 T03320232 TSNO
KBQP 092155Z AUTO 26006KT 10SM CLR 33/23 A2994 RMK AO2 T03320230 TSNO
KBQP 092135Z AUTO 25005KT 10SM SCT038 SCT050 34/23 A2994 RMK AO2 T03350233 TSNO
KBQP 092115Z AUTO 28005KT 10SM SCT038 SCT048 SCT060 33/24 A2993 RMK AO2 T03320235 TSNO
KBQP 092055Z AUTO 25007KT 10SM BKN038 BKN046 BKN060 32/24 A2994 RMK AO2 P0001 60003 T03240241 TSNO
KBQP 092035Z AUTO 26005KT 10SM BKN038 BKN046 BKN055 33/24 A2994 RMK AO2 T03310238 TSNO
KBQP 092015Z AUTO 26008KT 10SM SCT038 SCT046 SCT055 33/24 A2994 RMK AO2 T03280235 TSNO
KBQP 091955Z AUTO 23005KT 10SM SCT036 SCT043 33/24 A2994 RMK AO2 P0001 T03260237 TSNO
KBQP 091935Z AUTO 23006KT 10SM SCT033 SCT041 32/24 A2994 RMK AO2 P0001 T03230237 TSNO
KBQP 091915Z AUTO 29005KT 10SM SCT033 SCT041 SCT050 32/24 A2995 RMK AO2 T03240243 TSNO
KBQP 091855Z AUTO 27007KT 10SM BKN033 BKN041 BKN050 32/23 A2996 RMK AO2 P0001 T03190232 TSNO
KBQP 091835Z AUTO 23008KT 10SM SCT033 32/23 A2996 RMK AO2 P0001 T03200232 TSNO
KBQP 091815Z AUTO 22007KT 210V270 10SM BKN033 32/24 A2996 RMK AO2 T03150235 TSNO
KBQP 091755Z AUTO 23006KT 10SM SCT031 SCT035 31/23 A2996 RMK AO2 T03140233 10315 20246 TSNO
KBQP 091735Z AUTO 23007KT 10SM SCT029 SCT034 31/23 A2996 RMK AO2 T03130232 TSNO
KBQP 091715Z AUTO 25007KT 10SM BKN027 BKN036 31/24 A2997 RMK AO2 T03060239 TSNO
KBQP 091655Z AUTO 25008KT 10SM BKN025 31/24 A2997 RMK AO2 T03050236 TSNO
KBQP 091635Z AUTO 28009G15KT 10SM BKN023 30/24 A2996 RMK AO2 T03040238 TSNO
KBQP 091615Z AUTO 22009KT 190V250 10SM BKN023 30/24 A2996 RMK AO2 T03010242 TSNO
KBQP 091555Z AUTO 22009KT 10SM BKN021 30/25 A2996 RMK AO2 T03040246 TSNO
KBQP 091535Z AUTO 24008KT 10SM SCT021 30/24 A2996 RMK AO2 T02980244 TSNO
KBQP 091515Z AUTO 23009KT 10SM CLR 30/24 A2995 RMK AO2 T02960241 TSNO
KBQP 091455Z AUTO 25007KT 220V280 7SM CLR 29/25 A2994 RMK AO2 T02940247 TSNO
KBQP 091435Z AUTO 24005KT 7SM SCT016 29/25 A2994 RMK AO2 T02870249 TSNO
KBQP 091415Z AUTO 22009KT 7SM SCT016 28/25 A2994 RMK AO2 T02830248 TSNO
KBQP 091355Z AUTO 24009KT 10SM SCT012 28/25 A2995 RMK AO2 T02800250 TSNO
KBQP 091335Z AUTO 22008KT 7SM SCT011 28/26 A2994 RMK AO2 T02750257 TSNO
KBQP 091315Z AUTO 24005KT 7SM SCT007 27/26 A2995 RMK AO2 T02690263 TSNO
KBQP 091255Z AUTO 23008KT 7SM SCT007 BKN075 26/26 A2994 RMK AO2 T02630260 TSNO
KBQP 091235Z AUTO 22005KT 5SM BR SCT007 SCT075 26/25 A2995 RMK AO2 T02570253 TSNO
KBQP 091215Z AUTO 00000KT 5SM BR CLR 25/25 A2994 RMK AO2 T02500247 TSNO
KBQP 091155Z AUTO 00000KT 5SM BR CLR 25/24 A2994 RMK AO2 T02450242 10250 20243 TSNO
KBQP 091135Z AUTO 00000KT 4SM BR CLR 24/24 A2994 RMK AO2 T02430240 TSNO
KBQP 091115Z AUTO 00000KT 5SM BR CLR 24/24 A2993 RMK AO2 T02430240 TSNO
KBQP 091055Z AUTO 20003KT 7SM CLR 25/24 A2993 RMK AO2 T02450240 TSNO
KBQP 091035Z AUTO 21003KT 7SM CLR 25/24 A2992 RMK AO2 T02450240 TSNO
KBQP 091015Z AUTO 23003KT 7SM CLR 25/24 A2992 RMK AO2 T02450241 TSNO
KBQP 090955Z AUTO 22003KT 7SM CLR 25/24 A2992 RMK AO2 T02450241 TSNO
KBQP 090935Z AUTO 20004KT 7SM CLR 25/24 A2991 RMK AO2 T02450241 TSNO
KBQP 090915Z AUTO 20005KT 7SM CLR 25/24 A2991 RMK AO2 T02450241 TSNO
KBQP 090855Z AUTO 20004KT 7SM CLR 25/24 A2991 RMK AO2 T02450241 TSNO
KBQP 090835Z AUTO 20003KT 7SM CLR 25/24 A2990 RMK AO2 T02460242 TSNO
KBQP 090815Z AUTO 00000KT 7SM CLR 25/24 A2990 RMK AO2 T02460242 TSNO
KBQP 090755Z AUTO 20003KT 7SM CLR 25/24 A2990 RMK AO2 T02470243 TSNO
KBQP 090735Z AUTO 20003KT 10SM SCT036 SCT042 25/24 A2990 RMK AO2 T02460243 TSNO
KBQP 090715Z AUTO 18004KT 10SM SCT036 SCT042 25/24 A2990 RMK AO2 T02460243 TSNO
KBQP 090655Z AUTO 17003KT 10SM SCT041 25/24 A2990 RMK AO2 T02470244 TSNO
KBQP 090635Z AUTO 17003KT 10SM SCT041 25/25 A2990 RMK AO2 T02480245 TSNO
KBQP 090615Z AUTO 00000KT 7SM SCT042 25/25 A2991 RMK AO2 T02500245 TSNO
KBQP 090555Z AUTO 00000KT 7SM CLR 25/25 A2991 RMK AO2 T02500246 10286 20250 403110231 TSNO
KBQP 090535Z AUTO 00000KT 7SM CLR 25/25 A2991 RMK AO2 T02510247 TSNO
KBQP 090515Z AUTO 00000KT 7SM CLR 25/25 A2992 RMK AO2 T02520248 TSNO
KBQP 090455Z AUTO 00000KT 7SM CLR 25/25 A2991 RMK AO2 T02520249 TSNO
KBQP 090435Z AUTO 00000KT 7SM CLR 26/25 A2992 RMK AO2 T02550250 TSNO
KBQP 090415Z AUTO 00000KT 7SM CLR 26/25 A2991 RMK AO2 T02560252 TSNO
KBQP 090355Z AUTO 00000KT 7SM CLR 26/25 A2992 RMK AO2 T02570253 TSNO
KBQP 090335Z AUTO 00000KT 7SM CLR 26/26 A2992 RMK AO2 T02580255 TSNO
KBQP 090315Z AUTO 00000KT 7SM CLR 26/26 A2992 RMK AO2 T02600257 TSNO
KBQP 090255Z AUTO 00000KT 10SM CLR 26/26 A2991 RMK AO2 T02640260 TSNO
KBQP 090235Z AUTO 00000KT 10SM SCT110 27/26 A2991 RMK AO2 T02660262 TSNO
KBQP 090215Z AUTO 00000KT 10SM SCT050 SCT055 SCT080 27/27 A2991 RMK AO2 T02680265 TSNO
KBQP 090155Z AUTO 00000KT 10SM SCT080 SCT110 27/27 A2990 RMK AO2 T02680265 TSNO
KBQP 090135Z AUTO 00000KT 7SM SCT080 BKN110 27/27 A2990 RMK AO2 T02700265 TSNO
KBQP 090115Z AUTO 00000KT 7SM SCT075 BKN120 27/27 A2990 RMK AO2 T02690265 TSNO
KBQP 090055Z AUTO 00000KT 7SM CLR 27/27 A2990 RMK AO2 T02710267 TSNO
KBQP 090035Z AUTO 00000KT 7SM SCT075 SCT120 27/27 A2990 RMK AO2 T02740270 TSNO
KBQP 090015Z AUTO 00000KT 7SM CLR 28/27 A2991 RMK AO2 T02760272 TSNO
KBQP 082355Z AUTO 00000KT 10SM SCT110 29/26 A2990 RMK AO2 T02860258 10311 20259 TSNO
KBQP 082335Z AUTO 22003KT 10SM SCT080 BKN110 30/25 A2990 RMK AO2 T03010249 TSNO
KBQP 082315Z AUTO 22005KT 10SM SCT080 30/25 A2990 RMK AO2 T03010246 TSNO
KBQP 082255Z AUTO 20004KT 10SM SCT080 SCT110 30/25 A2990 RMK AO2 T03010248 TSNO
KBQP 082235Z AUTO 25003KT 10SM SCT021 SCT080 BKN110 31/25 A2991 RMK AO2 T03070247 TSNO
KBQP 082215Z AUTO 21004KT 10SM SCT021 SCT100 31/25 A2991 RMK AO2 T03070248 TSNO
KBQP 082155Z AUTO 23004KT 10SM SCT020 SCT110 31/25 A2991 RMK AO2 T03070253 TSNO
KBQP 082135Z AUTO 22003KT 10SM SCT022 31/25 A2991 RMK AO2 T03090250 TSNO
KBQP 082115Z AUTO 23007KT 10SM CLR 31/25 A2991 RMK AO2 T03050251 TSNO
KBQP 082055Z AUTO 27004KT 10SM SCT090 30/25 A2991 RMK AO2 T02990250 TSNO
KBQP 082035Z AUTO 21003KT 10SM SCT070 BKN090 30/26 A2992 RMK AO2 T02960262 TSNO
KBQP 082015Z AUTO 24004KT 10SM BKN070 BKN090 29/26 A2994 RMK AO2 T02850258 TSNO
KBQP 081955Z AUTO 27004KT 10SM SCT013 28/25 A2994 RMK AO2 T02830253 TSNO
KBQP 081935Z AUTO 23004KT 10SM CLR 28/25 A2995 RMK AO2 T02770249 TSNO
KBQP 081915Z AUTO 30005KT 10SM CLR 28/25 A2994 RMK AO2 T02780246 TSNO
KBQP 081855Z AUTO 27003KT 10SM CLR 28/26 A2995 RMK AO2 T02760255 TSNO
KBQP 081835Z AUTO 00000KT 10SM SCT009 SCT027 SCT036 26/26 A2996 RMK AO2 T02640259 TSNO
KBQP 081815Z AUTO 25004KT 10SM RA BKN009 BKN036 OVC095 26/26 A2998 RMK AO2 T02640260 TSNO
KBQP 081755Z AUTO 23004KT 7SM -RA SCT009 BKN027 BKN070 27/27 A2998 RMK AO2 T02700265 10270 20232 TSNO
KBQP 081735Z AUTO 22006KT 10SM SCT027 SCT038 SCT050 26/26 A2999 RMK AO2 T02630260 TSNO
KBQP 081715Z AUTO 00000KT 10SM SCT007 SCT023 SCT031 26/26 A2998 RMK AO2 T02600255 TSNO
KBQP 081655Z AUTO 00000KT 10SM SCT031 SCT039 SCT050 25/24 A2998 RMK AO2 T02480244 TSNO
KBQP 081635Z AUTO 00000KT 1 1/2SM +RA SCT011 BKN029 OVC041 25/24 A2999 RMK AO2 T02450241 TSNO
KBQP 081615Z AUTO 00000KT 4SM -RA SCT007 BKN012 OVC025 25/24 A3000 RMK AO2 T02450240 TSNO
KBQP 081555Z AUTO 00000KT 10SM OVC007 25/24 A3000 RMK AO2 T02450241 TSNO
KBQP 081535Z AUTO 00000KT 10SM BKN007 OVC013 24/24 A3000 RMK AO2 T02430240 TSNO
KBQP 081515Z AUTO 00000KT 10SM OVC013 24/24 A2999 RMK AO2 T02400236 TSNO
KBQP 081455Z AUTO 00000KT 10SM OVC013 24/23 A2999 RMK AO2 T02350232 TSNO
KBQP 081435Z AUTO 00000KT 10SM -RA SCT009 OVC019 23/23 A2999 RMK AO2 T02330230 TSNO
KBQP 081415Z AUTO 32006KT 1/4SM +RA OVC009 23/23 A2999 RMK AO2 T02330230 TSNO
KBQP 081355Z AUTO 29010G17KT 1/2SM +RA BKN005 OVC012 23/23 A2999 RMK AO2 T02340230 TSNO
KBQP 081335Z AUTO 30012G15KT 1 1/2SM +RA BKN007 OVC014 24/24 A2999 RMK AO2 T02400236 TSNO
KBQP 081315Z AUTO 26003KT 3SM +RA SCT007 BKN014 OVC027 24/23 A2998 RMK AO2 T02360233 TSNO
KBQP 081255Z AUTO 30005KT 2SM +RA BKN005 OVC008 23/23 A2997 RMK AO2 VIS 1 1/4V5 T02330230 TSNO
KBQP 081235Z AUTO 30006KT 2SM +RA OVC003 24/24 A2997 RMK AO2 T02430240 TSNO
KBQP 081215Z AUTO 20004KT 1 3/4SM -RA OVC003 24/24 A2995 RMK AO2 T02410237 TSNO
KBQP 081155Z AUTO 21004KT 3SM -RA OVC003 24/24 A2996 RMK AO2 T02410237 10241 20231 TSNO
KBQP 081135Z AUTO 21004KT 7SM OVC003 24/24 A2996 RMK AO2 T02400236 TSNO
KBQP 081115Z AUTO 19005KT 5SM -DZ OVC003 24/24 A2995 RMK AO2 T02400236 TSNO
KBQP 081055Z AUTO 20005KT 3SM -RA OVC005 24/24 A2996 RMK AO2 T02400235 TSNO
KBQP 081035Z AUTO 18003KT 10SM OVC005 24/24 A2995 RMK AO2 T02380235 TSNO
KBQP 081015Z AUTO 20004KT 7SM -DZ OVC005 24/23 A2995 RMK AO2 T02370234 TSNO
KBQP 080955Z AUTO 00000KT 10SM OVC005 24/23 A2995 RMK AO2 T02360232 TSNO
KBQP 080935Z AUTO 19003KT 10SM BKN007 OVC090 24/23 A2996 RMK AO2 T02350231 TSNO
KBQP 080915Z AUTO 00000KT 10SM SCT009 SCT033 OVC090 24/23 A2995 RMK AO2 T02350230 TSNO
KBQP 080855Z AUTO 18003KT 10SM SCT034 SCT065 BKN090 23/23 A2995 RMK AO2 T02330230 TSNO
KBQP 080835Z AUTO 17003KT 10SM SCT028 SCT065 BKN090 23/23 A2995 RMK AO2 T02330230 TSNO
KBQP 080815Z AUTO 18003KT 10SM SCT028 SCT050 OVC090 24/23 A2995 RMK AO2 T02350231 TSNO
KBQP 080755Z AUTO 18003KT 10SM SCT065 OVC090 23/23 A2996 RMK AO2 T02340230 TSNO
KBQP 080735Z AUTO 19003KT 10SM SCT065 OVC090 23/23 A2997 RMK AO2 T02320230 TSNO
KBQP 080715Z AUTO 18003KT 10SM SCT060 SCT080 OVC090 23/23 A2997 RMK AO2 T02310228 TSNO
KBQP 080655Z AUTO 00000KT 10SM BKN060 BKN070 OVC080 23/23 A2997 RMK AO2 T02310228 TSNO
KBQP 080635Z AUTO 00000KT 10SM SCT080 23/23 A2997 RMK AO2 T02310227 TSNO
KBQP 080615Z AUTO 17003KT 10SM SCT080 23/23 A2997 RMK AO2 T02310228 TSNO
KBQP 080555Z AUTO 16003KT 10SM BKN080 23/23 A2998 RMK AO2 T02320230 10250 20232 403010225 TSNO
KBQP 080535Z AUTO 15003KT 10SM BKN055 BKN080 23/23 A2998 RMK AO2 T02330230 TSNO
KBQP 080515Z AUTO 00000KT 10SM SCT028 BKN055 OVC085 24/23 A2999 RMK AO2 T02350231 TSNO
KBQP 080455Z AUTO 16003KT 10SM SCT028 BKN033 OVC085 24/23 A2999 RMK AO2 T02350231 TSNO
KBQP 080435Z AUTO 00000KT 10SM BKN034 BKN048 OVC050 24/23 A2999 RMK AO2 T02360232 TSNO
KBQP 080415Z AUTO 19003KT 10SM SCT038 BKN060 OVC075 24/23 A2998 RMK AO2 T02350231 TSNO
KBQP 080355Z AUTO 00000KT 10SM BKN036 BKN050 OVC120 24/24 A2998 RMK AO2 T02370235 TSNO
KBQP 080335Z AUTO 00000KT 10SM SCT033 SCT060 BKN120 24/24 A2998 RMK AO2 T02400235 TSNO
KBQP 080315Z AUTO 00000KT 10SM OVC120 24/24 A2997 RMK AO2 T02400236 TSNO
KBQP 080255Z AUTO 00000KT 10SM SCT060 SCT080 OVC110 24/24 A2997 RMK AO2 T02410238 TSNO
KBQP 080235Z AUTO 00000KT 10SM BKN080 OVC110 24/24 A2997 RMK AO2 T02420239 TSNO
KBQP 080215Z AUTO 19003KT 10SM OVC110 24/24 A2996 RMK AO2 T02420238 TSNO
KBQP 080155Z AUTO 00000KT 10SM BKN110 24/24 A2996 RMK AO2 T02420238 TSNO
KBQP 080135Z AUTO 00000KT 10SM SCT050 SCT085 BKN110 24/24 A2997 RMK AO2 T02420239 TSNO
KBQP 080115Z AUTO 00000KT 10SM BKN050 OVC065 24/24 A2997 RMK AO2 T02430240 TSNO
KBQP 080055Z AUTO 00000KT 10SM SCT055 BKN065 BKN075 25/24 A2997 RMK AO2 T02450241 TSNO
KBQP 080035Z AUTO 00000KT 10SM SCT075 SCT080 25/24 A2997 RMK AO2 T02450241 TSNO
KBQP 080015Z AUTO 00000KT 10SM SCT014 SCT040 SCT050 25/24 A2997 RMK AO2 T02460243 TSNO
KBQP 072355Z AUTO 19003KT 10SM SCT040 BKN050 25/25 A2997 RMK AO2 T02500245 10301 20237 TSNO
KBQP 072335Z AUTO 00000KT 10SM SCT050 25/25 A2997 RMK AO2 T02490245 TSNO
KBQP 072315Z AUTO 00000KT 10SM SCT080 SCT120 25/24 A2996 RMK AO2 T02470243 TSNO
KBQP 072255Z AUTO 00000KT 7SM -RA SCT037 SCT050 BKN090 24/24 A2995 RMK AO2 T02410238 TSNO
KBQP 072235Z AUTO 00000KT 4SM RA SCT027 BKN075 OVC100 24/24 A2997 RMK AO2 T02380235 TSNO
KBQP 072215Z AUTO 22004KT 10SM SCT031 SCT035 BKN047 28/25 A2997 RMK AO2 T02830245 TSNO
KBQP 072155Z AUTO 00000KT 10SM -RA SCT031 BKN047 OVC110 29/25 A2998 RMK AO2 T02850248 TSNO
KBQP 072135Z AUTO 00000KT 10SM SCT029 SCT037 SCT110 29/24 A2998 RMK AO2 T02870236 TSNO
KBQP 072115Z AUTO 00000KT 10SM CLR 29/23 A2998 RMK AO2 T02850229 TSNO
KBQP 072055Z AUTO 22003KT 10SM SCT027 SCT039 SCT050 29/23 A2999 RMK AO2 T02890227 TSNO
KBQP 072035Z AUTO 00000KT 10SM SCT024 SCT032 BKN050 29/23 A2999 RMK AO2 T02920226 TSNO
KBQP 072015Z AUTO 16003KT 10SM BKN024 BKN032 30/24 A2999 RMK AO2 T02960236 TSNO
KBQP 071955Z AUTO 00000KT 10SM CLR 30/22 A2999 RMK AO2 T02950224 TSNO
KBQP 071935Z AUTO 00000KT 10SM SCT022 30/22 A2999 RMK AO2 T02970224 TSNO
KBQP 071915Z AUTO 00000KT 10SM SCT022 BKN110 30/23 A3000 RMK AO2 T02950230 TSNO
KBQP 071855Z AUTO 00000KT 10SM SCT021 BKN110 29/23 A3001 RMK AO2 T02910230 TSNO
KBQP 071835Z AUTO 00000KT 10SM SCT021 SCT110 29/24 A3003 RMK AO2 T02880236 TSNO
KBQP 071815Z AUTO 00000KT 10SM SCT016 SCT120 28/23 A3003 RMK AO2 T02810229 TSNO
KBQP 071755Z AUTO 00000KT 10SM SCT016 28/24 A3003 RMK AO2 T02780243 10278 20234 TSNO
KBQP 071735Z AUTO 29003KT 10SM CLR 27/24 A3003 RMK AO2 T02740235 TSNO
KBQP 071715Z AUTO 00000KT 10SM SCT012 28/25 A3004 RMK AO2 T02760247 TSNO
KBQP 071655Z AUTO 00000KT 10SM BKN010 27/25 A3004 RMK AO2 T02660249 TSNO
KBQP 071635Z AUTO 25004KT 10SM BKN010 BKN026 OVC034 26/26 A3004 RMK AO2 T02630256 TSNO
KBQP 071615Z AUTO 00000KT 10SM -DZ SCT008 SCT031 SCT050 26/25 A3004 RMK AO2 T02550251 TSNO
KBQP 071555Z AUTO 26003KT 10SM SCT035 SCT050 SCT070 25/25 A3004 RMK AO2 T02500247 TSNO
KBQP 071535Z AUTO 25004KT 10SM -DZ SCT008 BKN040 OVC080 25/24 A3004 RMK AO2 T02460243 TSNO
KBQP 071515Z AUTO 23004KT 7SM -RA SCT008 BKN034 OVC070 25/24 A3004 RMK AO2 T02470244 TSNO
KBQP 071455Z AUTO 25004KT 10SM -DZ SCT008 BKN040 OVC050 25/25 A3004 RMK AO2 T02500246 TSNO
KBQP 071435Z AUTO 25005KT 10SM -RA SCT036 BKN045 OVC070 25/25 A3004 RMK AO2 T02480245 TSNO